sensor_id;sensor_type;location;lat;lon;timestamp;pressure;altitude;pressure_sealevel;temperature;humidity
73234;BME280;62293;-26.174;27.908;2022-08-16T00:00:26;83747.57;;;20.91;15.20
73234;BME280;62293;-26.174;27.908;2022-08-16T00:02:48;83748.94;;;20.12;15.39
73234;BME280;62293;-26.174;27.908;2022-08-16T00:05:15;83745.15;;;20.23;15.33
73234;BME280;62293;-26.174;27.908;2022-08-16T00:07:39;83744.67;;;20.11;15.37
73234;BME280;62293;-26.174;27.908;2022-08-16T00:10:05;83742.29;;;20.44;15.33
73234;BME280;62293;-26.174;27.908;2022-08-16T00:12:30;83738.70;;;20.38;15.53
73234;BME280;62293;-26.174;27.908;2022-08-16T00:14:56;83735.82;;;20.11;15.36
73234;BME280;62293;-26.174;27.908;2022-08-16T00:17:20;83738.90;;;20.45;15.44
73234;BME280;62293;-26.174;27.908;2022-08-16T00:19:51;83741.69;;;20.02;15.51
73234;BME280;62293;-26.174;27.908;2022-08-16T00:22:11;83737.08;;;19.78;15.51
73234;BME280;62293;-26.174;27.908;2022-08-16T00:24:36;83737.58;;;20.19;15.40
73234;BME280;62293;-26.174;27.908;2022-08-16T00:27:03;83735.19;;;20.09;15.45
73234;BME280;62293;-26.174;27.908;2022-08-16T00:29:28;83733.81;;;19.94;15.38
73234;BME280;62293;-26.174;27.908;2022-08-16T00:31:52;83731.54;;;20.16;15.38
73234;BME280;62293;-26.174;27.908;2022-08-16T00:34:19;83734.00;;;20.18;15.32
73234;BME280;62293;-26.174;27.908;2022-08-16T00:36:43;83735.59;;;19.90;15.34
73234;BME280;62293;-26.174;27.908;2022-08-16T00:39:08;83737.11;;;19.78;15.40
73234;BME280;62293;-26.174;27.908;2022-08-16T00:41:34;83737.44;;;19.99;15.28
73234;BME280;62293;-26.174;27.908;2022-08-16T00:44:02;83735.86;;;20.43;15.29
73234;BME280;62293;-26.174;27.908;2022-08-16T00:46:29;83732.37;;;20.37;15.34
73234;BME280;62293;-26.174;27.908;2022-08-16T00:48:51;83730.50;;;20.11;15.36
73234;BME280;62293;-26.174;27.908;2022-08-16T00:51:17;83733.81;;;19.88;15.36
73234;BME280;62293;-26.174;27.908;2022-08-16T00:53:41;83733.39;;;19.98;15.46
73234;BME280;62293;-26.174;27.908;2022-08-16T00:56:10;83733.07;;;19.69;15.45
73234;BME280;62293;-26.174;27.908;2022-08-16T00:58:35;83733.66;;;19.93;15.44
73234;BME280;62293;-26.174;27.908;2022-08-16T01:00:57;83732.84;;;19.98;15.40
73234;BME280;62293;-26.174;27.908;2022-08-16T01:03:26;83732.41;;;19.99;15.39
73234;BME280;62293;-26.174;27.908;2022-08-16T01:05:49;83730.61;;;20.30;15.32
73234;BME280;62293;-26.174;27.908;2022-08-16T01:08:18;83731.66;;;19.68;15.41
73234;BME280;62293;-26.174;27.908;2022-08-16T01:10:40;83730.25;;;19.64;15.44
73234;BME280;62293;-26.174;27.908;2022-08-16T01:13:17;83732.33;;;20.00;15.48
73234;BME280;62293;-26.174;27.908;2022-08-16T01:15:32;83732.87;;;20.01;15.53
73234;BME280;62293;-26.174;27.908;2022-08-16T01:17:56;83732.81;;;19.46;15.59
73234;BME280;62293;-26.174;27.908;2022-08-16T01:20:23;83734.48;;;19.81;15.66
73234;BME280;62293;-26.174;27.908;2022-08-16T01:22:51;83735.03;;;19.69;15.69
73234;BME280;62293;-26.174;27.908;2022-08-16T01:25:15;83734.33;;;19.38;15.60
73234;BME280;62293;-26.174;27.908;2022-08-16T01:27:40;83732.53;;;19.79;15.63
73234;BME280;62293;-26.174;27.908;2022-08-16T01:30:07;83730.95;;;19.80;15.64
73234;BME280;62293;-26.174;27.908;2022-08-16T01:32:29;83732.81;;;19.74;15.64
73234;BME280;62293;-26.174;27.908;2022-08-16T01:34:53;83733.12;;;19.49;15.64
73234;BME280;62293;-26.174;27.908;2022-08-16T01:37:19;83732.53;;;19.74;15.70
73234;BME280;62293;-26.174;27.908;2022-08-16T01:39:44;83730.35;;;19.81;15.59
73234;BME280;62293;-26.174;27.908;2022-08-16T01:42:09;83730.96;;;19.56;15.68
73234;BME280;62293;-26.174;27.908;2022-08-16T01:44:35;83727.94;;;19.81;15.55
73234;BME280;62293;-26.174;27.908;2022-08-16T01:47:00;83724.51;;;19.42;15.66
73234;BME280;62293;-26.174;27.908;2022-08-16T01:49:28;83726.95;;;19.48;15.66
73234;BME280;62293;-26.174;27.908;2022-08-16T01:51:54;83727.91;;;19.77;15.61
73234;BME280;62293;-26.174;27.908;2022-08-16T01:54:16;83727.28;;;19.50;15.58
73234;BME280;62293;-26.174;27.908;2022-08-16T01:56:41;83730.49;;;19.43;15.63
73234;BME280;62293;-26.174;27.908;2022-08-16T01:59:08;83733.64;;;19.40;15.63
73234;BME280;62293;-26.174;27.908;2022-08-16T02:01:33;83732.41;;;19.66;15.62
73234;BME280;62293;-26.174;27.908;2022-08-16T02:03:58;83730.08;;;19.64;15.62
73234;BME280;62293;-26.174;27.908;2022-08-16T02:06:23;83728.18;;;19.48;15.57
73234;BME280;62293;-26.174;27.908;2022-08-16T02:08:48;83729.64;;;19.63;15.64
73234;BME280;62293;-26.174;27.908;2022-08-16T02:11:13;83728.51;;;19.50;15.68
73234;BME280;62293;-26.174;27.908;2022-08-16T02:13:39;83728.26;;;19.63;15.64
73234;BME280;62293;-26.174;27.908;2022-08-16T02:16:04;83727.11;;;19.64;15.60
73234;BME280;62293;-26.174;27.908;2022-08-16T02:18:29;83728.36;;;19.22;15.71
73234;BME280;62293;-26.174;27.908;2022-08-16T02:20:54;83727.01;;;19.44;15.67
73234;BME280;62293;-26.174;27.908;2022-08-16T02:23:20;83723.23;;;19.13;15.77
73234;BME280;62293;-26.174;27.908;2022-08-16T02:25:46;83724.05;;;19.35;15.74
73234;BME280;62293;-26.174;27.908;2022-08-16T02:28:10;83724.10;;;19.40;15.67
73234;BME280;62293;-26.174;27.908;2022-08-16T02:30:35;83725.31;;;19.44;15.64
73234;BME280;62293;-26.174;27.908;2022-08-16T02:33:02;83724.01;;;19.32;15.73
73234;BME280;62293;-26.174;27.908;2022-08-16T02:35:26;83723.83;;;19.44;15.70
73234;BME280;62293;-26.174;27.908;2022-08-16T02:37:52;83721.88;;;19.74;15.75
73234;BME280;62293;-26.174;27.908;2022-08-16T02:40:17;83720.22;;;19.03;15.97
73234;BME280;62293;-26.174;27.908;2022-08-16T02:42:42;83719.69;;;19.34;15.69
73234;BME280;62293;-26.174;27.908;2022-08-16T02:45:09;83719.37;;;19.04;15.74
73234;BME280;62293;-26.174;27.908;2022-08-16T02:47:33;83720.08;;;19.20;15.78
73234;BME280;62293;-26.174;27.908;2022-08-16T02:49:58;83718.29;;;19.30;15.68
73234;BME280;62293;-26.174;27.908;2022-08-16T02:52:23;83716.66;;;18.99;15.76
73234;BME280;62293;-26.174;27.908;2022-08-16T02:54:49;83715.41;;;19.16;15.73
73234;BME280;62293;-26.174;27.908;2022-08-16T02:57:14;83717.79;;;19.15;15.73
73234;BME280;62293;-26.174;27.908;2022-08-16T02:59:39;83719.09;;;18.70;16.01
73234;BME280;62293;-26.174;27.908;2022-08-16T03:02:05;83724.78;;;19.30;15.79
73234;BME280;62293;-26.174;27.908;2022-08-16T03:04:31;83726.46;;;18.96;15.79
73234;BME280;62293;-26.174;27.908;2022-08-16T03:06:56;83731.18;;;19.23;15.79
73234;BME280;62293;-26.174;27.908;2022-08-16T03:09:21;83736.98;;;18.80;15.91
73234;BME280;62293;-26.174;27.908;2022-08-16T03:11:46;83738.58;;;19.01;15.74
73234;BME280;62293;-26.174;27.908;2022-08-16T03:14:12;83739.05;;;18.18;15.82
73234;BME280;62293;-26.174;27.908;2022-08-16T03:16:37;83741.06;;;18.84;15.56
73234;BME280;62293;-26.174;27.908;2022-08-16T03:19:03;83738.96;;;18.87;15.61
73234;BME280;62293;-26.174;27.908;2022-08-16T03:21:27;83744.83;;;19.38;15.58
73234;BME280;62293;-26.174;27.908;2022-08-16T03:23:53;83749.36;;;18.71;15.64
73234;BME280;62293;-26.174;27.908;2022-08-16T03:26:18;83755.64;;;18.18;16.10
73234;BME280;62293;-26.174;27.908;2022-08-16T03:28:44;83756.58;;;17.99;16.30
73234;BME280;62293;-26.174;27.908;2022-08-16T03:31:09;83756.49;;;18.08;16.27
73234;BME280;62293;-26.174;27.908;2022-08-16T03:33:35;83760.83;;;18.02;16.32
73234;BME280;62293;-26.174;27.908;2022-08-16T03:36:01;83759.05;;;18.11;16.26
73234;BME280;62293;-26.174;27.908;2022-08-16T03:38:28;83760.44;;;18.33;16.43
73234;BME280;62293;-26.174;27.908;2022-08-16T03:40:51;83761.68;;;18.14;16.36
73234;BME280;62293;-26.174;27.908;2022-08-16T03:43:16;83765.08;;;18.12;16.34
73234;BME280;62293;-26.174;27.908;2022-08-16T03:45:41;83765.61;;;17.95;16.46
73234;BME280;62293;-26.174;27.908;2022-08-16T03:48:08;83764.04;;;17.74;16.42
73234;BME280;62293;-26.174;27.908;2022-08-16T03:50:32;83769.97;;;18.08;16.40
73234;BME280;62293;-26.174;27.908;2022-08-16T03:52:58;83773.85;;;18.11;16.42
73234;BME280;62293;-26.174;27.908;2022-08-16T03:55:23;83774.55;;;18.00;16.55
73234;BME280;62293;-26.174;27.908;2022-08-16T03:57:49;83774.33;;;17.89;16.48
73234;BME280;62293;-26.174;27.908;2022-08-16T04:00:19;83776.58;;;18.24;16.35
73234;BME280;62293;-26.174;27.908;2022-08-16T04:02:41;83779.17;;;18.34;16.49
73234;BME280;62293;-26.174;27.908;2022-08-16T04:05:06;83778.67;;;18.13;16.67
73234;BME280;62293;-26.174;27.908;2022-08-16T04:07:30;83782.47;;;17.94;16.59
73234;BME280;62293;-26.174;27.908;2022-08-16T04:09:55;83783.83;;;18.02;16.49
73234;BME280;62293;-26.174;27.908;2022-08-16T04:12:20;83784.78;;;17.95;16.48
73234;BME280;62293;-26.174;27.908;2022-08-16T04:14:47;83788.68;;;17.94;16.62
73234;BME280;62293;-26.174;27.908;2022-08-16T04:17:11;83787.99;;;17.79;16.73
73234;BME280;62293;-26.174;27.908;2022-08-16T04:19:36;83792.07;;;17.82;16.53
73234;BME280;62293;-26.174;27.908;2022-08-16T04:22:03;83792.44;;;18.27;16.52
73234;BME280;62293;-26.174;27.908;2022-08-16T04:24:27;83796.30;;;18.01;16.50
73234;BME280;62293;-26.174;27.908;2022-08-16T04:26:53;83797.62;;;18.03;16.55
73234;BME280;62293;-26.174;27.908;2022-08-16T04:29:18;83798.18;;;17.90;16.43
73234;BME280;62293;-26.174;27.908;2022-08-16T04:31:43;83801.71;;;18.61;16.28
73234;BME280;62293;-26.174;27.908;2022-08-16T04:34:08;83805.13;;;17.85;16.32
73234;BME280;62293;-26.174;27.908;2022-08-16T04:36:34;83806.43;;;18.22;16.30
73234;BME280;62293;-26.174;27.908;2022-08-16T04:38:59;83809.52;;;18.10;16.36
73234;BME280;62293;-26.174;27.908;2022-08-16T04:41:24;83812.61;;;18.09;16.36
73234;BME280;62293;-26.174;27.908;2022-08-16T04:43:49;83816.73;;;18.59;16.24
73234;BME280;62293;-26.174;27.908;2022-08-16T04:46:15;83818.80;;;18.16;16.32
73234;BME280;62293;-26.174;27.908;2022-08-16T04:48:40;83820.77;;;18.38;16.41
73234;BME280;62293;-26.174;27.908;2022-08-16T04:51:05;83827.43;;;18.23;16.23
73234;BME280;62293;-26.174;27.908;2022-08-16T04:53:30;83828.34;;;18.24;16.29
73234;BME280;62293;-26.174;27.908;2022-08-16T04:55:55;83826.49;;;18.48;16.36
73234;BME280;62293;-26.174;27.908;2022-08-16T04:58:21;83829.66;;;18.19;16.54
73234;BME280;62293;-26.174;27.908;2022-08-16T05:00:46;83833.33;;;18.39;16.68
73234;BME280;62293;-26.174;27.908;2022-08-16T05:03:13;83837.39;;;18.20;16.61
73234;BME280;62293;-26.174;27.908;2022-08-16T05:05:39;83842.90;;;18.34;16.44
73234;BME280;62293;-26.174;27.908;2022-08-16T05:08:04;83845.44;;;18.20;16.74
73234;BME280;62293;-26.174;27.908;2022-08-16T05:10:28;83846.18;;;17.98;16.79
73234;BME280;62293;-26.174;27.908;2022-08-16T05:12:53;83847.47;;;18.18;16.86
73234;BME280;62293;-26.174;27.908;2022-08-16T05:15:19;83849.21;;;18.26;16.81
73234;BME280;62293;-26.174;27.908;2022-08-16T05:17:44;83853.81;;;18.37;16.64
73234;BME280;62293;-26.174;27.908;2022-08-16T05:20:10;83857.90;;;18.19;16.81
73234;BME280;62293;-26.174;27.908;2022-08-16T05:22:34;83858.10;;;18.18;17.30
73234;BME280;62293;-26.174;27.908;2022-08-16T05:25:00;83856.24;;;18.25;17.26
73234;BME280;62293;-26.174;27.908;2022-08-16T05:27:25;83855.18;;;17.47;17.49
73234;BME280;62293;-26.174;27.908;2022-08-16T05:29:51;83854.58;;;16.62;17.68
73234;BME280;62293;-26.174;27.908;2022-08-16T05:32:17;83855.15;;;16.93;17.33
73234;BME280;62293;-26.174;27.908;2022-08-16T05:34:42;83855.99;;;16.49;17.93
73234;BME280;62293;-26.174;27.908;2022-08-16T05:37:08;83856.51;;;17.12;17.39
73234;BME280;62293;-26.174;27.908;2022-08-16T05:39:33;83861.81;;;17.15;17.43
73234;BME280;62293;-26.174;27.908;2022-08-16T05:42:05;83861.94;;;17.05;17.34
73234;BME280;62293;-26.174;27.908;2022-08-16T05:44:24;83862.62;;;16.91;17.38
73234;BME280;62293;-26.174;27.908;2022-08-16T05:46:51;83863.92;;;16.77;17.46
73234;BME280;62293;-26.174;27.908;2022-08-16T05:49:16;83869.63;;;16.91;17.31
73234;BME280;62293;-26.174;27.908;2022-08-16T05:51:41;83873.17;;;17.10;17.19
73234;BME280;62293;-26.174;27.908;2022-08-16T05:54:07;83873.32;;;16.31;17.24
73234;BME280;62293;-26.174;27.908;2022-08-16T05:56:31;83872.04;;;17.28;16.97
73234;BME280;62293;-26.174;27.908;2022-08-16T05:58:57;83873.69;;;17.10;16.95
73234;BME280;62293;-26.174;27.908;2022-08-16T06:01:22;83876.61;;;17.73;16.65
73234;BME280;62293;-26.174;27.908;2022-08-16T06:03:47;83874.94;;;17.40;16.52
73234;BME280;62293;-26.174;27.908;2022-08-16T06:06:13;83876.49;;;17.85;16.80
73234;BME280;62293;-26.174;27.908;2022-08-16T06:08:39;83884.93;;;17.23;16.52
73234;BME280;62293;-26.174;27.908;2022-08-16T06:11:05;83889.24;;;17.53;16.31
73234;BME280;62293;-26.174;27.908;2022-08-16T06:13:30;83890.40;;;17.92;16.23
73234;BME280;62293;-26.174;27.908;2022-08-16T06:15:56;83892.02;;;18.34;16.41
73234;BME280;62293;-26.174;27.908;2022-08-16T06:18:21;83903.12;;;18.12;16.37
73234;BME280;62293;-26.174;27.908;2022-08-16T06:20:46;83901.13;;;18.31;16.02
73234;BME280;62293;-26.174;27.908;2022-08-16T06:23:12;83904.48;;;17.92;16.39
73234;BME280;62293;-26.174;27.908;2022-08-16T06:25:38;83906.12;;;18.33;16.11
73234;BME280;62293;-26.174;27.908;2022-08-16T06:28:05;83910.30;;;18.80;15.81
73234;BME280;62293;-26.174;27.908;2022-08-16T06:30:29;83911.58;;;19.16;15.78
73234;BME280;62293;-26.174;27.908;2022-08-16T06:32:54;83918.36;;;19.18;15.91
73234;BME280;62293;-26.174;27.908;2022-08-16T06:35:20;83920.83;;;19.03;15.68
73234;BME280;62293;-26.174;27.908;2022-08-16T06:37:46;83923.42;;;19.17;15.66
73234;BME280;62293;-26.174;27.908;2022-08-16T06:40:12;83921.11;;;18.82;15.46
73234;BME280;62293;-26.174;27.908;2022-08-16T06:42:37;83927.85;;;19.66;15.48
73234;BME280;62293;-26.174;27.908;2022-08-16T06:45:04;83928.13;;;19.83;15.39
73234;BME280;62293;-26.174;27.908;2022-08-16T06:47:28;83925.60;;;20.02;15.12
73234;BME280;62293;-26.174;27.908;2022-08-16T06:49:54;83924.28;;;19.85;15.36
73234;BME280;62293;-26.174;27.908;2022-08-16T06:52:19;83921.80;;;19.74;15.21
73234;BME280;62293;-26.174;27.908;2022-08-16T06:54:44;83924.67;;;19.81;14.92
73234;BME280;62293;-26.174;27.908;2022-08-16T06:57:09;83929.63;;;19.96;14.98
73234;BME280;62293;-26.174;27.908;2022-08-16T06:59:35;83930.65;;;20.22;14.98
73234;BME280;62293;-26.174;27.908;2022-08-16T07:02:00;83929.81;;;20.01;14.98
73234;BME280;62293;-26.174;27.908;2022-08-16T07:04:25;83927.30;;;20.60;14.82
73234;BME280;62293;-26.174;27.908;2022-08-16T07:06:50;83929.20;;;20.30;14.84
73234;BME280;62293;-26.174;27.908;2022-08-16T07:09:16;83930.66;;;20.39;14.99
73234;BME280;62293;-26.174;27.908;2022-08-16T07:11:41;83935.47;;;20.63;14.86
73234;BME280;62293;-26.174;27.908;2022-08-16T07:14:07;83938.93;;;20.28;14.87
73234;BME280;62293;-26.174;27.908;2022-08-16T07:16:32;83940.46;;;20.19;15.08
73234;BME280;62293;-26.174;27.908;2022-08-16T07:18:58;83944.83;;;20.43;14.88
73234;BME280;62293;-26.174;27.908;2022-08-16T07:21:23;83945.85;;;20.72;14.78
73234;BME280;62293;-26.174;27.908;2022-08-16T07:23:49;83950.32;;;20.54;14.73
73234;BME280;62293;-26.174;27.908;2022-08-16T07:26:19;83953.86;;;20.60;14.68
73234;BME280;62293;-26.174;27.908;2022-08-16T07:28:40;83955.64;;;21.10;14.70
73234;BME280;62293;-26.174;27.908;2022-08-16T07:31:05;83961.22;;;20.42;14.92
73234;BME280;62293;-26.174;27.908;2022-08-16T07:33:31;83961.83;;;20.58;14.83
73234;BME280;62293;-26.174;27.908;2022-08-16T07:35:57;83959.59;;;21.04;14.90
73234;BME280;62293;-26.174;27.908;2022-08-16T07:38:22;83961.31;;;20.73;14.73
73234;BME280;62293;-26.174;27.908;2022-08-16T07:40:48;83960.07;;;20.93;14.74
73234;BME280;62293;-26.174;27.908;2022-08-16T07:43:13;83957.03;;;21.66;14.50
73234;BME280;62293;-26.174;27.908;2022-08-16T07:45:39;83952.38;;;21.06;14.71
73234;BME280;62293;-26.174;27.908;2022-08-16T07:48:04;83954.39;;;21.20;14.39
73234;BME280;62293;-26.174;27.908;2022-08-16T07:50:29;83956.36;;;21.55;14.29
73234;BME280;62293;-26.174;27.908;2022-08-16T07:52:55;83964.27;;;21.22;14.01
73234;BME280;62293;-26.174;27.908;2022-08-16T07:55:20;83958.96;;;21.32;14.19
73234;BME280;62293;-26.174;27.908;2022-08-16T07:57:46;83960.11;;;21.35;13.97
73234;BME280;62293;-26.174;27.908;2022-08-16T08:00:13;83963.35;;;21.60;13.99
73234;BME280;62293;-26.174;27.908;2022-08-16T08:02:37;83969.87;;;21.65;13.54
73234;BME280;62293;-26.174;27.908;2022-08-16T08:05:04;83960.92;;;21.75;13.46
73234;BME280;62293;-26.174;27.908;2022-08-16T08:07:28;83955.38;;;21.82;13.52
73234;BME280;62293;-26.174;27.908;2022-08-16T08:09:53;83948.59;;;21.63;13.43
73234;BME280;62293;-26.174;27.908;2022-08-16T08:12:20;83938.61;;;21.65;13.76
73234;BME280;62293;-26.174;27.908;2022-08-16T08:14:45;83943.11;;;22.36;13.29
73234;BME280;62293;-26.174;27.908;2022-08-16T08:17:10;83933.89;;;21.45;13.71
73234;BME280;62293;-26.174;27.908;2022-08-16T08:19:36;83941.06;;;22.16;13.39
73234;BME280;62293;-26.174;27.908;2022-08-16T08:22:02;83939.15;;;21.95;13.71
73234;BME280;62293;-26.174;27.908;2022-08-16T08:24:27;83936.39;;;22.01;13.57
73234;BME280;62293;-26.174;27.908;2022-08-16T08:26:54;83934.54;;;22.17;13.43
73234;BME280;62293;-26.174;27.908;2022-08-16T08:29:19;83939.04;;;22.21;13.35
73234;BME280;62293;-26.174;27.908;2022-08-16T08:31:44;83945.88;;;22.20;13.27
73234;BME280;62293;-26.174;27.908;2022-08-16T08:34:09;83945.27;;;22.16;13.11
73234;BME280;62293;-26.174;27.908;2022-08-16T08:36:35;83939.81;;;21.89;13.47
73234;BME280;62293;-26.174;27.908;2022-08-16T08:39:01;83937.86;;;22.45;13.49
73234;BME280;62293;-26.174;27.908;2022-08-16T08:41:26;83941.59;;;22.37;13.28
73234;BME280;62293;-26.174;27.908;2022-08-16T08:43:51;83945.22;;;22.27;13.56
73234;BME280;62293;-26.174;27.908;2022-08-16T08:46:16;83944.38;;;22.21;13.64
73234;BME280;62293;-26.174;27.908;2022-08-16T08:48:42;83941.63;;;22.01;13.62
73234;BME280;62293;-26.174;27.908;2022-08-16T08:51:09;83938.56;;;22.24;13.21
73234;BME280;62293;-26.174;27.908;2022-08-16T08:53:34;83936.10;;;22.93;13.09
73234;BME280;62293;-26.174;27.908;2022-08-16T08:55:59;83937.47;;;22.58;13.27
73234;BME280;62293;-26.174;27.908;2022-08-16T08:58:25;83936.07;;;22.81;13.16
73234;BME280;62293;-26.174;27.908;2022-08-16T09:00:50;83932.03;;;22.91;13.07
73234;BME280;62293;-26.174;27.908;2022-08-16T09:03:15;83924.81;;;22.84;13.16
73234;BME280;62293;-26.174;27.908;2022-08-16T09:05:42;83925.34;;;22.62;13.45
73234;BME280;62293;-26.174;27.908;2022-08-16T09:08:06;83919.39;;;22.31;13.86
73234;BME280;62293;-26.174;27.908;2022-08-16T09:10:32;83911.88;;;22.25;13.99
73234;BME280;62293;-26.174;27.908;2022-08-16T09:12:57;83915.23;;;22.98;13.74
73234;BME280;62293;-26.174;27.908;2022-08-16T09:15:22;83913.32;;;23.04;13.42
73234;BME280;62293;-26.174;27.908;2022-08-16T09:17:48;83911.45;;;22.65;13.96
73234;BME280;62293;-26.174;27.908;2022-08-16T09:20:14;83904.94;;;22.37;13.73
73234;BME280;62293;-26.174;27.908;2022-08-16T09:22:40;83898.24;;;22.93;13.29
73234;BME280;62293;-26.174;27.908;2022-08-16T09:25:06;83899.31;;;22.76;13.36
73234;BME280;62293;-26.174;27.908;2022-08-16T09:27:31;83903.45;;;23.45;12.67
73234;BME280;62293;-26.174;27.908;2022-08-16T09:29:57;83895.83;;;23.18;13.15
73234;BME280;62293;-26.174;27.908;2022-08-16T09:32:22;83894.13;;;23.47;12.99
73234;BME280;62293;-26.174;27.908;2022-08-16T09:34:48;83892.22;;;22.94;13.48
73234;BME280;62293;-26.174;27.908;2022-08-16T09:37:14;83886.78;;;23.23;13.12
73234;BME280;62293;-26.174;27.908;2022-08-16T09:39:39;83889.01;;;23.42;12.98
73234;BME280;62293;-26.174;27.908;2022-08-16T09:42:05;83881.11;;;23.30;13.17
73234;BME280;62293;-26.174;27.908;2022-08-16T09:44:30;83864.95;;;23.72;12.96
73234;BME280;62293;-26.174;27.908;2022-08-16T09:46:56;83862.74;;;23.03;13.14
73234;BME280;62293;-26.174;27.908;2022-08-16T09:49:22;83861.57;;;23.33;12.70
73234;BME280;62293;-26.174;27.908;2022-08-16T09:51:47;83862.49;;;23.43;12.71
73234;BME280;62293;-26.174;27.908;2022-08-16T09:54:12;83852.97;;;23.93;12.53
73234;BME280;62293;-26.174;27.908;2022-08-16T09:56:39;83855.80;;;23.84;12.72
73234;BME280;62293;-26.174;27.908;2022-08-16T09:59:05;83844.28;;;23.06;13.21
73234;BME280;62293;-26.174;27.908;2022-08-16T10:01:28;83848.32;;;23.55;12.99
73234;BME280;62293;-26.174;27.908;2022-08-16T10:03:54;83842.42;;;23.79;12.51
73234;BME280;62293;-26.174;27.908;2022-08-16T10:06:20;83841.95;;;23.62;12.72
73234;BME280;62293;-26.174;27.908;2022-08-16T10:08:45;83835.01;;;23.62;12.64
73234;BME280;62293;-26.174;27.908;2022-08-16T10:11:11;83835.51;;;24.03;12.52
73234;BME280;62293;-26.174;27.908;2022-08-16T10:13:36;83835.44;;;24.05;12.51
73234;BME280;62293;-26.174;27.908;2022-08-16T10:16:03;83830.06;;;23.70;13.05
73234;BME280;62293;-26.174;27.908;2022-08-16T10:18:28;83831.35;;;23.96;12.86
73234;BME280;62293;-26.174;27.908;2022-08-16T10:20:53;83817.10;;;23.86;12.63
73234;BME280;62293;-26.174;27.908;2022-08-16T10:23:18;83811.60;;;24.03;12.14
73234;BME280;62293;-26.174;27.908;2022-08-16T10:25:46;83807.29;;;23.86;12.81
73234;BME280;62293;-26.174;27.908;2022-08-16T10:28:11;83806.96;;;23.06;13.21
73234;BME280;62293;-26.174;27.908;2022-08-16T10:30:36;83801.01;;;23.60;13.27
73234;BME280;62293;-26.174;27.908;2022-08-16T10:33:03;83794.59;;;23.55;12.89
73234;BME280;62293;-26.174;27.908;2022-08-16T10:35:27;83792.57;;;24.04;12.99
73234;BME280;62293;-26.174;27.908;2022-08-16T10:37:57;83788.99;;;23.78;12.95
73234;BME280;62293;-26.174;27.908;2022-08-16T10:40:18;83783.70;;;23.51;13.45
73234;BME280;62293;-26.174;27.908;2022-08-16T10:42:42;83789.73;;;24.14;12.76
73234;BME280;62293;-26.174;27.908;2022-08-16T10:45:09;83783.15;;;23.66;12.75
73234;BME280;62293;-26.174;27.908;2022-08-16T10:47:33;83783.03;;;23.79;13.03
73234;BME280;62293;-26.174;27.908;2022-08-16T10:49:58;83776.48;;;24.25;12.58
73234;BME280;62293;-26.174;27.908;2022-08-16T10:52:24;83778.89;;;24.18;12.13
73234;BME280;62293;-26.174;27.908;2022-08-16T10:54:49;83762.94;;;23.14;12.50
73234;BME280;62293;-26.174;27.908;2022-08-16T10:57:14;83755.15;;;22.17;12.75
73234;BME280;62293;-26.174;27.908;2022-08-16T10:59:40;83757.27;;;22.50;12.66
73234;BME280;62293;-26.174;27.908;2022-08-16T11:02:05;83746.15;;;21.45;13.20
73234;BME280;62293;-26.174;27.908;2022-08-16T11:04:30;83736.32;;;22.17;13.20
73234;BME280;62293;-26.174;27.908;2022-08-16T11:06:56;83737.21;;;21.77;13.19
73234;BME280;62293;-26.174;27.908;2022-08-16T11:09:21;83739.62;;;19.71;15.00
73234;BME280;62293;-26.174;27.908;2022-08-16T11:11:46;83726.98;;;21.23;14.06
73234;BME280;62293;-26.174;27.908;2022-08-16T11:14:11;83723.83;;;21.48;13.61
73234;BME280;62293;-26.174;27.908;2022-08-16T11:16:37;83721.41;;;21.10;13.66
73234;BME280;62293;-26.174;27.908;2022-08-16T11:19:03;83721.35;;;22.13;13.18
73234;BME280;62293;-26.174;27.908;2022-08-16T11:21:27;83720.31;;;22.15;12.97
73234;BME280;62293;-26.174;27.908;2022-08-16T11:23:53;83717.93;;;22.76;12.57
73234;BME280;62293;-26.174;27.908;2022-08-16T11:26:19;83718.72;;;19.86;14.22
73234;BME280;62293;-26.174;27.908;2022-08-16T11:28:44;83706.54;;;21.42;13.40
73234;BME280;62293;-26.174;27.908;2022-08-16T11:31:09;83712.67;;;20.66;13.89
73234;BME280;62293;-26.174;27.908;2022-08-16T11:33:34;83710.88;;;20.09;14.10
73234;BME280;62293;-26.174;27.908;2022-08-16T11:36:00;83699.24;;;21.09;13.53
73234;BME280;62293;-26.174;27.908;2022-08-16T11:38:25;83708.17;;;19.29;14.37
73234;BME280;62293;-26.174;27.908;2022-08-16T11:40:53;83696.14;;;20.99;13.46
73234;BME280;62293;-26.174;27.908;2022-08-16T11:43:19;83698.97;;;19.36;14.09
73234;BME280;62293;-26.174;27.908;2022-08-16T11:45:41;83689.35;;;20.52;13.07
73234;BME280;62293;-26.174;27.908;2022-08-16T11:48:07;83690.66;;;20.65;13.22
73234;BME280;62293;-26.174;27.908;2022-08-16T11:50:33;83689.11;;;20.67;13.18
73234;BME280;62293;-26.174;27.908;2022-08-16T11:52:58;83687.59;;;20.94;12.83
73234;BME280;62293;-26.174;27.908;2022-08-16T11:55:23;83690.79;;;20.08;13.40
73234;BME280;62293;-26.174;27.908;2022-08-16T11:57:48;83689.26;;;20.52;13.29
73234;BME280;62293;-26.174;27.908;2022-08-16T12:00:14;83689.41;;;21.79;12.72
73234;BME280;62293;-26.174;27.908;2022-08-16T12:02:39;83686.31;;;22.52;11.90
73234;BME280;62293;-26.174;27.908;2022-08-16T12:05:06;83680.60;;;22.40;12.24
73234;BME280;62293;-26.174;27.908;2022-08-16T12:07:29;83681.17;;;21.37;12.74
73234;BME280;62293;-26.174;27.908;2022-08-16T12:09:55;83679.68;;;21.37;12.74
73234;BME280;62293;-26.174;27.908;2022-08-16T12:12:21;83678.83;;;21.71;12.41
73234;BME280;62293;-26.174;27.908;2022-08-16T12:14:45;83674.90;;;20.98;12.63
73234;BME280;62293;-26.174;27.908;2022-08-16T12:17:11;83670.66;;;22.05;12.55
73234;BME280;62293;-26.174;27.908;2022-08-16T12:19:36;83666.99;;;22.25;11.99
73234;BME280;62293;-26.174;27.908;2022-08-16T12:22:03;83672.11;;;21.68;12.09
73234;BME280;62293;-26.174;27.908;2022-08-16T12:24:28;83673.58;;;22.31;12.28
73234;BME280;62293;-26.174;27.908;2022-08-16T12:26:53;83671.23;;;21.71;12.61
73234;BME280;62293;-26.174;27.908;2022-08-16T12:29:18;83667.47;;;20.48;12.81